sensor_id;sensor_type;location;lat;lon;timestamp;pressure;altitude;pressure_sealevel;temperature;humidity
15260;BME280;34462;51.368;12.364;2023-07-31T00:01:42;20693.94;;;-141.84;72.67
15260;BME280;34462;51.368;12.364;2023-07-31T00:04:11;20700.03;;;-141.84;73.22
15260;BME280;34462;51.368;12.364;2023-07-31T00:06:40;20685.81;;;-141.84;73.67
15260;BME280;34462;51.368;12.364;2023-07-31T00:09:10;20669.56;;;-141.84;74.03
15260;BME280;34462;51.368;12.364;2023-07-31T00:11:39;20706.16;;;-141.84;72.49
15260;BME280;34462;51.368;12.364;2023-07-31T00:14:07;20748.84;;;-141.84;71.06
15260;BME280;34462;51.368;12.364;2023-07-31T00:16:36;20728.50;;;-141.84;71.28
15260;BME280;34462;51.368;12.364;2023-07-31T00:19:05;20740.69;;;-141.84;72.54
15260;BME280;34462;51.368;12.364;2023-07-31T00:21:33;20728.50;;;-141.84;73.17
15260;BME280;34462;51.368;12.364;2023-07-31T00:24:02;20704.13;;;-141.84;73.72
15260;BME280;34462;51.368;12.364;2023-07-31T00:26:32;20689.88;;;-141.84;73.15
15260;BME280;34462;51.368;12.364;2023-07-31T00:29:00;20742.75;;;-141.84;72.96
15260;BME280;34462;51.368;12.364;2023-07-31T00:31:29;20698.00;;;-141.84;73.79
15260;BME280;34462;51.368;12.364;2023-07-31T00:33:57;20702.09;;;-141.84;73.08
15260;BME280;34462;51.368;12.364;2023-07-31T00:36:26;20700.03;;;-141.84;73.98
15260;BME280;34462;51.368;12.364;2023-07-31T00:38:54;20714.28;;;-141.84;73.96
15260;BME280;34462;51.368;12.364;2023-07-31T00:41:23;20708.19;;;-141.84;74.59
15260;BME280;34462;51.368;12.364;2023-07-31T00:43:53;20691.91;;;-141.84;74.59
15260;BME280;34462;51.368;12.364;2023-07-31T00:46:21;20683.78;;;-141.84;75.19
15260;BME280;34462;51.368;12.364;2023-07-31T00:48:50;20689.88;;;-141.84;75.56
15260;BME280;34462;51.368;12.364;2023-07-31T00:51:19;20746.81;;;-141.84;74.97
15260;BME280;34462;51.368;12.364;2023-07-31T00:53:47;20732.56;;;-141.84;74.25
15260;BME280;34462;51.368;12.364;2023-07-31T00:56:16;20726.47;;;-141.84;72.19
15260;BME280;34462;51.368;12.364;2023-07-31T00:58:45;20738.66;;;-141.84;72.21
15260;BME280;34462;51.368;12.364;2023-07-31T01:01:15;20744.78;;;-141.84;72.60
15260;BME280;34462;51.368;12.364;2023-07-31T01:03:43;20771.19;;;-141.84;71.00
15260;BME280;34462;51.368;12.364;2023-07-31T01:06:18;20736.63;;;-141.84;72.56
15260;BME280;34462;51.368;12.364;2023-07-31T01:08:57;20736.63;;;-141.84;72.04
15260;BME280;34462;51.368;12.364;2023-07-31T01:11:28;20744.78;;;-141.84;71.11
15260;BME280;34462;51.368;12.364;2023-07-31T01:13:58;20756.97;;;-141.84;71.37
15260;BME280;34462;51.368;12.364;2023-07-31T01:16:29;20801.69;;;-141.84;69.92
15260;BME280;34462;51.368;12.364;2023-07-31T01:18:57;20822.03;;;-141.84;70.14
15260;BME280;34462;51.368;12.364;2023-07-31T01:21:51;20811.84;;;-141.84;69.73
15260;BME280;34462;51.368;12.364;2023-07-31T01:24:29;20801.69;;;-141.84;68.96
15260;BME280;34462;51.368;12.364;2023-07-31T01:27:06;20815.91;;;-141.84;70.27
15260;BME280;34462;51.368;12.364;2023-07-31T01:29:40;20805.75;;;-141.84;68.80
15260;BME280;34462;51.368;12.364;2023-07-31T01:32:11;20842.34;;;-141.84;67.63
15260;BME280;34462;51.368;12.364;2023-07-31T01:34:40;20868.78;;;-141.84;67.47
15260;BME280;34462;51.368;12.364;2023-07-31T01:37:09;20911.47;;;-141.84;66.47
15260;BME280;34462;51.368;12.364;2023-07-31T01:39:38;20842.34;;;-141.84;67.16
15260;BME280;34462;51.368;12.364;2023-07-31T01:42:08;20915.53;;;-141.84;66.31
15260;BME280;34462;51.368;12.364;2023-07-31T01:44:36;20878.94;;;-141.84;66.86
15260;BME280;34462;51.368;12.364;2023-07-31T01:47:05;20854.53;;;-141.84;67.38
15260;BME280;34462;51.368;12.364;2023-07-31T01:49:34;20850.47;;;-141.84;68.71
15260;BME280;34462;51.368;12.364;2023-07-31T01:52:03;20874.88;;;-141.84;69.17
15260;BME280;34462;51.368;12.364;2023-07-31T01:54:31;20785.44;;;-141.84;70.20
15260;BME280;34462;51.368;12.364;2023-07-31T01:57:00;20750.88;;;-141.84;71.24
15260;BME280;34462;51.368;12.364;2023-07-31T01:59:30;20773.22;;;-141.84;71.06
15260;BME280;34462;51.368;12.364;2023-07-31T02:01:59;20724.44;;;-141.84;73.18
15260;BME280;34462;51.368;12.364;2023-07-31T02:04:27;20710.22;;;-141.84;74.32
15260;BME280;34462;51.368;12.364;2023-07-31T02:06:56;20706.16;;;-141.84;74.64
15260;BME280;34462;51.368;12.364;2023-07-31T02:09:24;20712.25;;;-141.84;74.43
15260;BME280;34462;51.368;12.364;2023-07-31T02:11:52;20702.09;;;-141.84;74.02
15260;BME280;34462;51.368;12.364;2023-07-31T02:14:21;20720.38;;;-141.84;73.04
15260;BME280;34462;51.368;12.364;2023-07-31T02:16:51;20738.66;;;-141.84;73.04
15260;BME280;34462;51.368;12.364;2023-07-31T02:19:19;20740.69;;;-141.84;71.82
15260;BME280;34462;51.368;12.364;2023-07-31T02:21:48;20763.06;;;-141.84;70.98
15260;BME280;34462;51.368;12.364;2023-07-31T02:24:16;20763.06;;;-141.84;72.06
15260;BME280;34462;51.368;12.364;2023-07-31T02:26:45;20781.38;;;-141.84;71.36
15260;BME280;34462;51.368;12.364;2023-07-31T02:29:13;20740.69;;;-141.84;72.41
15260;BME280;34462;51.368;12.364;2023-07-31T02:31:42;20730.53;;;-141.84;71.41
15260;BME280;34462;51.368;12.364;2023-07-31T02:34:11;20789.50;;;-141.84;71.34
15260;BME280;34462;51.368;12.364;2023-07-31T02:36:40;20799.66;;;-141.84;69.94
15260;BME280;34462;51.368;12.364;2023-07-31T02:39:09;20779.31;;;-141.84;71.16
15260;BME280;34462;51.368;12.364;2023-07-31T02:41:37;20767.13;;;-141.84;71.13
15260;BME280;34462;51.368;12.364;2023-07-31T02:44:06;20828.13;;;-141.84;69.45
15260;BME280;34462;51.368;12.364;2023-07-31T02:46:34;20803.72;;;-141.84;70.03
15260;BME280;34462;51.368;12.364;2023-07-31T02:49:03;20740.69;;;-141.84;71.15
15260;BME280;34462;51.368;12.364;2023-07-31T02:51:33;20817.94;;;-141.84;70.51
15260;BME280;34462;51.368;12.364;2023-07-31T02:54:01;20789.50;;;-141.84;70.95
15260;BME280;34462;51.368;12.364;2023-07-31T02:56:30;20746.81;;;-141.84;71.80
15260;BME280;34462;51.368;12.364;2023-07-31T02:58:58;20748.84;;;-141.84;71.34
15260;BME280;34462;51.368;12.364;2023-07-31T03:01:27;20714.28;;;-141.84;72.10
15260;BME280;34462;51.368;12.364;2023-07-31T03:03:55;20761.03;;;-141.84;72.32
15260;BME280;34462;51.368;12.364;2023-07-31T03:06:24;20771.19;;;-141.84;71.04
15260;BME280;34462;51.368;12.364;2023-07-31T03:08:55;20746.81;;;-141.84;70.67
15260;BME280;34462;51.368;12.364;2023-07-31T03:11:24;20797.63;;;-141.84;69.95
15260;BME280;34462;51.368;12.364;2023-07-31T03:13:52;20777.28;;;-141.84;70.79
15260;BME280;34462;51.368;12.364;2023-07-31T03:16:21;20793.56;;;-141.84;70.11
15260;BME280;34462;51.368;12.364;2023-07-31T03:18:50;20744.78;;;-141.84;71.50
15260;BME280;34462;51.368;12.364;2023-07-31T03:21:18;20779.31;;;-141.84;71.01
15260;BME280;34462;51.368;12.364;2023-07-31T03:23:46;20748.84;;;-141.84;70.46
15260;BME280;34462;51.368;12.364;2023-07-31T03:26:16;20771.19;;;-141.84;70.72
15260;BME280;34462;51.368;12.364;2023-07-31T03:28:45;20765.09;;;-141.84;70.56
15260;BME280;34462;51.368;12.364;2023-07-31T03:31:13;20752.91;;;-141.84;71.08
15260;BME280;34462;51.368;12.364;2023-07-31T03:33:42;20777.28;;;-141.84;70.92
15260;BME280;34462;51.368;12.364;2023-07-31T03:36:10;20787.47;;;-141.84;70.96
15260;BME280;34462;51.368;12.364;2023-07-31T03:38:39;20724.44;;;-141.84;72.46
15260;BME280;34462;51.368;12.364;2023-07-31T03:41:07;20734.59;;;-141.84;72.77
15260;BME280;34462;51.368;12.364;2023-07-31T03:43:39;20783.41;;;-141.84;72.59
15260;BME280;34462;51.368;12.364;2023-07-31T03:46:07;20681.75;;;-141.84;74.17
15260;BME280;34462;51.368;12.364;2023-07-31T03:48:35;20700.03;;;-141.84;75.40
15260;BME280;34462;51.368;12.364;2023-07-31T03:51:04;20641.09;;;-141.84;76.21
15260;BME280;34462;51.368;12.364;2023-07-31T03:53:33;20647.19;;;-141.84;76.32
15260;BME280;34462;51.368;12.364;2023-07-31T03:56:01;20647.19;;;-141.84;76.21
15260;BME280;34462;51.368;12.364;2023-07-31T03:58:31;20608.56;;;-141.84;76.51
15260;BME280;34462;51.368;12.364;2023-07-31T04:01:01;20632.97;;;-141.84;77.04
15260;BME280;34462;51.368;12.364;2023-07-31T04:03:30;20584.19;;;-141.84;77.98
15260;BME280;34462;51.368;12.364;2023-07-31T04:05:58;20600.44;;;-141.84;78.34
15260;BME280;34462;51.368;12.364;2023-07-31T04:08:27;20559.78;;;-141.84;78.08
15260;BME280;34462;51.368;12.364;2023-07-31T04:10:55;20632.97;;;-141.84;77.81
15260;BME280;34462;51.368;12.364;2023-07-31T04:13:23;20659.38;;;-141.84;76.21
15260;BME280;34462;51.368;12.364;2023-07-31T04:15:54;20620.78;;;-141.84;77.50
15260;BME280;34462;51.368;12.364;2023-07-31T04:18:25;20659.38;;;-141.84;76.41
15260;BME280;34462;51.368;12.364;2023-07-31T04:20:53;20610.59;;;-141.84;77.46
15260;BME280;34462;51.368;12.364;2023-07-31T04:23:22;20663.47;;;-141.84;76.85
15260;BME280;34462;51.368;12.364;2023-07-31T04:25:51;20602.47;;;-141.84;77.58
15260;BME280;34462;51.368;12.364;2023-07-31T04:28:19;20622.81;;;-141.84;77.88
15260;BME280;34462;51.368;12.364;2023-07-31T04:30:48;20665.50;;;-141.84;77.77
15260;BME280;34462;51.368;12.364;2023-07-31T04:33:17;20649.22;;;-141.84;77.74
15260;BME280;34462;51.368;12.364;2023-07-31T04:35:50;20669.56;;;-141.84;77.76
15260;BME280;34462;51.368;12.364;2023-07-31T04:38:20;20655.31;;;-141.84;77.37
15260;BME280;34462;51.368;12.364;2023-07-31T04:40:49;20685.81;;;-141.84;76.76
15260;BME280;34462;51.368;12.364;2023-07-31T04:43:17;20637.03;;;-141.84;77.07
15260;BME280;34462;51.368;12.364;2023-07-31T04:45:46;20663.47;;;-141.84;78.11
15260;BME280;34462;51.368;12.364;2023-07-31T04:48:15;20667.53;;;-141.84;78.68
15260;BME280;34462;51.368;12.364;2023-07-31T04:50:44;20675.66;;;-141.84;78.01
15260;BME280;34462;51.368;12.364;2023-07-31T04:53:14;20671.59;;;-141.84;78.66
15260;BME280;34462;51.368;12.364;2023-07-31T04:55:42;20637.03;;;-141.84;79.80
15260;BME280;34462;51.368;12.364;2023-07-31T04:58:11;20651.25;;;-141.84;79.98
15260;BME280;34462;51.368;12.364;2023-07-31T05:00:39;20643.13;;;-141.84;80.76
15260;BME280;34462;51.368;12.364;2023-07-31T05:03:08;20610.59;;;-141.84;81.89
15260;BME280;34462;51.368;12.364;2023-07-31T05:05:38;20580.13;;;-141.84;82.74
15260;BME280;34462;51.368;12.364;2023-07-31T05:08:06;20612.63;;;-141.84;82.52
15260;BME280;34462;51.368;12.364;2023-07-31T05:10:36;20567.91;;;-141.84;83.01
15260;BME280;34462;51.368;12.364;2023-07-31T05:13:05;20618.72;;;-141.84;83.79
15260;BME280;34462;51.368;12.364;2023-07-31T05:15:33;20588.25;;;-141.84;82.75
15260;BME280;34462;51.368;12.364;2023-07-31T05:18:02;20543.53;;;-141.84;83.35
15260;BME280;34462;51.368;12.364;2023-07-31T05:20:30;20557.75;;;-141.84;83.88
15260;BME280;34462;51.368;12.364;2023-07-31T05:22:58;20582.16;;;-141.84;84.64
15260;BME280;34462;51.368;12.364;2023-07-31T05:25:27;20547.59;;;-141.84;85.69
15260;BME280;34462;51.368;12.364;2023-07-31T05:27:57;20498.81;;;-141.84;86.32
15260;BME280;34462;51.368;12.364;2023-07-31T05:30:25;20519.13;;;-141.84;86.08
15260;BME280;34462;51.368;12.364;2023-07-31T05:32:54;20533.34;;;-141.84;85.98
15260;BME280;34462;51.368;12.364;2023-07-31T05:35:22;20571.97;;;-141.84;85.72
15260;BME280;34462;51.368;12.364;2023-07-31T05:37:51;20551.66;;;-141.84;86.06
15260;BME280;34462;51.368;12.364;2023-07-31T05:40:19;20576.03;;;-141.84;85.91
15260;BME280;34462;51.368;12.364;2023-07-31T05:42:48;20561.81;;;-141.84;85.01
15260;BME280;34462;51.368;12.364;2023-07-31T05:45:18;20622.81;;;-141.84;84.75
15260;BME280;34462;51.368;12.364;2023-07-31T05:47:46;20584.19;;;-141.84;85.31
15260;BME280;34462;51.368;12.364;2023-07-31T05:50:15;20614.66;;;-141.84;84.69
15260;BME280;34462;51.368;12.364;2023-07-31T05:52:43;20604.50;;;-141.84;84.23
15260;BME280;34462;51.368;12.364;2023-07-31T05:55:12;20645.16;;;-141.84;84.78
15260;BME280;34462;51.368;12.364;2023-07-31T05:57:40;20677.69;;;-141.84;83.29
15260;BME280;34462;51.368;12.364;2023-07-31T06:00:10;20675.66;;;-141.84;81.91
15260;BME280;34462;51.368;12.364;2023-07-31T06:02:41;20667.53;;;-141.84;81.42
15260;BME280;34462;51.368;12.364;2023-07-31T06:05:09;20683.78;;;-141.84;81.89
15260;BME280;34462;51.368;12.364;2023-07-31T06:07:38;20738.66;;;-141.84;80.46
15260;BME280;34462;51.368;12.364;2023-07-31T06:10:07;20714.28;;;-141.84;81.28
15260;BME280;34462;51.368;12.364;2023-07-31T06:12:36;20689.88;;;-141.84;81.43
15260;BME280;34462;51.368;12.364;2023-07-31T06:15:05;20732.56;;;-141.84;80.68
15260;BME280;34462;51.368;12.364;2023-07-31T06:17:34;20736.63;;;-141.84;80.04
15260;BME280;34462;51.368;12.364;2023-07-31T06:20:06;20773.22;;;-141.84;79.49
15260;BME280;34462;51.368;12.364;2023-07-31T06:22:34;20761.03;;;-141.84;79.58
15260;BME280;34462;51.368;12.364;2023-07-31T06:25:03;20767.13;;;-141.84;79.62
15260;BME280;34462;51.368;12.364;2023-07-31T06:27:32;20793.56;;;-141.84;78.92
15260;BME280;34462;51.368;12.364;2023-07-31T06:30:00;20850.47;;;-141.84;77.11
15260;BME280;34462;51.368;12.364;2023-07-31T06:32:30;20834.22;;;-141.84;77.74
15260;BME280;34462;51.368;12.364;2023-07-31T06:34:58;20828.13;;;-141.84;76.70
15260;BME280;34462;51.368;12.364;2023-07-31T06:37:29;20797.63;;;-141.84;77.32
15260;BME280;34462;51.368;12.364;2023-07-31T06:39:57;20842.34;;;-141.84;77.30
15260;BME280;34462;51.368;12.364;2023-07-31T06:42:25;20880.97;;;-141.84;76.44
15260;BME280;34462;51.368;12.364;2023-07-31T06:44:54;20844.38;;;-141.84;76.93
15260;BME280;34462;51.368;12.364;2023-07-31T06:47:22;20830.16;;;-141.84;76.40
15260;BME280;34462;51.368;12.364;2023-07-31T06:49:51;20848.44;;;-141.84;77.04
15260;BME280;34462;51.368;12.364;2023-07-31T06:52:20;20895.19;;;-141.84;75.38
15260;BME280;34462;51.368;12.364;2023-07-31T06:55:01;20864.72;;;-141.84;76.19
15260;BME280;34462;51.368;12.364;2023-07-31T06:57:31;20852.50;;;-141.84;76.07
15260;BME280;34462;51.368;12.364;2023-07-31T07:00:00;20887.06;;;-141.84;76.38
15260;BME280;34462;51.368;12.364;2023-07-31T07:02:28;20850.47;;;-141.84;76.28
15260;BME280;34462;51.368;12.364;2023-07-31T07:04:57;20844.38;;;-141.84;75.85
15260;BME280;34462;51.368;12.364;2023-07-31T07:07:26;20923.66;;;-141.84;75.35
15260;BME280;34462;51.368;12.364;2023-07-31T07:09:56;20862.69;;;-141.84;74.73
15260;BME280;34462;51.368;12.364;2023-07-31T07:12:27;20842.34;;;-141.84;76.22
15260;BME280;34462;51.368;12.364;2023-07-31T07:14:55;20860.66;;;-141.84;75.86
15260;BME280;34462;51.368;12.364;2023-07-31T07:17:25;20868.78;;;-141.84;75.35
15260;BME280;34462;51.368;12.364;2023-07-31T07:19:54;20905.38;;;-141.84;74.24
15260;BME280;34462;51.368;12.364;2023-07-31T07:22:23;20887.06;;;-141.84;74.56
15260;BME280;34462;51.368;12.364;2023-07-31T07:24:53;20903.34;;;-141.84;74.71
15260;BME280;34462;51.368;12.364;2023-07-31T07:27:23;20909.44;;;-141.84;73.09
15260;BME280;34462;51.368;12.364;2023-07-31T07:29:51;20929.75;;;-141.84;73.92
15260;BME280;34462;51.368;12.364;2023-07-31T07:32:21;20923.66;;;-141.84;73.86
15260;BME280;34462;51.368;12.364;2023-07-31T07:34:49;20909.44;;;-141.84;73.95
15260;BME280;34462;51.368;12.364;2023-07-31T07:37:18;20974.50;;;-141.84;72.44
15260;BME280;34462;51.368;12.364;2023-07-31T07:39:46;20964.31;;;-141.84;73.00
15260;BME280;34462;51.368;12.364;2023-07-31T07:42:15;21019.22;;;-141.84;70.63
15260;BME280;34462;51.368;12.364;2023-07-31T07:44:45;21009.03;;;-141.84;71.22
15260;BME280;34462;51.368;12.364;2023-07-31T07:47:13;21082.25;;;-141.84;70.53
15260;BME280;34462;51.368;12.364;2023-07-31T07:49:42;21090.38;;;-141.84;70.08
15260;BME280;34462;51.368;12.364;2023-07-31T07:52:18;21098.50;;;-141.84;69.23
15260;BME280;34462;51.368;12.364;2023-07-31T07:54:47;21043.59;;;-141.84;70.41
15260;BME280;34462;51.368;12.364;2023-07-31T07:57:15;21068.00;;;-141.84;70.36
15260;BME280;34462;51.368;12.364;2023-07-31T07:59:45;21057.84;;;-141.84;70.42
15260;BME280;34462;51.368;12.364;2023-07-31T08:02:14;21100.53;;;-141.84;69.91
15260;BME280;34462;51.368;12.364;2023-07-31T08:04:42;21045.63;;;-141.84;71.13
15260;BME280;34462;51.368;12.364;2023-07-31T08:07:11;21108.66;;;-141.84;69.51
15260;BME280;34462;51.368;12.364;2023-07-31T08:09:40;21157.47;;;-141.84;68.45
15260;BME280;34462;51.368;12.364;2023-07-31T08:12:09;21059.88;;;-141.84;69.59
15260;BME280;34462;51.368;12.364;2023-07-31T08:14:37;21129.00;;;-141.84;68.77
15260;BME280;34462;51.368;12.364;2023-07-31T08:17:07;21169.66;;;-141.84;68.71
15260;BME280;34462;51.368;12.364;2023-07-31T08:19:36;21183.88;;;-141.84;67.96
15260;BME280;34462;51.368;12.364;2023-07-31T08:22:04;21161.53;;;-141.84;68.04
15260;BME280;34462;51.368;12.364;2023-07-31T08:24:33;21234.72;;;-141.84;67.13
15260;BME280;34462;51.368;12.364;2023-07-31T08:27:02;21293.69;;;-141.84;66.66
15260;BME280;34462;51.368;12.364;2023-07-31T08:29:30;21269.28;;;-141.84;66.98
15260;BME280;34462;51.368;12.364;2023-07-31T08:31:59;21250.97;;;-141.84;67.24
15260;BME280;34462;51.368;12.364;2023-07-31T08:34:28;21281.47;;;-141.84;65.64
15260;BME280;34462;51.368;12.364;2023-07-31T08:36:57;21265.22;;;-141.84;65.88
15260;BME280;34462;51.368;12.364;2023-07-31T08:39:25;21257.09;;;-141.84;66.42
15260;BME280;34462;51.368;12.364;2023-07-31T08:41:58;21297.75;;;-141.84;66.07
15260;BME280;34462;51.368;12.364;2023-07-31T08:44:27;21236.75;;;-141.84;66.47
15260;BME280;34462;51.368;12.364;2023-07-31T08:46:57;21236.75;;;-141.84;66.07
15260;BME280;34462;51.368;12.364;2023-07-31T08:49:28;21248.94;;;-141.84;66.33
15260;BME280;34462;51.368;12.364;2023-07-31T08:51:57;21322.13;;;-141.84;65.55
15260;BME280;34462;51.368;12.364;2023-07-31T08:54:26;21340.44;;;-141.84;65.54
15260;BME280;34462;51.368;12.364;2023-07-31T08:56:58;21287.56;;;-141.84;65.87
15260;BME280;34462;51.368;12.364;2023-07-31T08:59:30;21285.53;;;-141.84;65.11
15260;BME280;34462;51.368;12.364;2023-07-31T09:02:05;21332.31;;;-141.84;64.64
15260;BME280;34462;51.368;12.364;2023-07-31T09:04:35;21362.81;;;-141.84;64.27
15260;BME280;34462;51.368;12.364;2023-07-31T09:07:05;21346.53;;;-141.84;64.29
15260;BME280;34462;51.368;12.364;2023-07-31T09:09:34;21370.94;;;-141.84;64.30
15260;BME280;34462;51.368;12.364;2023-07-31T09:12:03;21366.88;;;-141.84;63.68
15260;BME280;34462;51.368;12.364;2023-07-31T09:14:33;21427.88;;;-141.84;62.91
15260;BME280;34462;51.368;12.364;2023-07-31T09:17:01;21362.81;;;-141.84;63.59
15260;BME280;34462;51.368;12.364;2023-07-31T09:19:36;21379.06;;;-141.84;64.06
15260;BME280;34462;51.368;12.364;2023-07-31T09:22:05;21395.34;;;-141.84;64.32
15260;BME280;34462;51.368;12.364;2023-07-31T09:24:35;21399.41;;;-141.84;63.73
15260;BME280;34462;51.368;12.364;2023-07-31T09:27:05;21419.72;;;-141.84;63.17
15260;BME280;34462;51.368;12.364;2023-07-31T09:29:34;21438.03;;;-141.84;62.58
15260;BME280;34462;51.368;12.364;2023-07-31T09:32:03;21358.75;;;-141.84;63.56
15260;BME280;34462;51.368;12.364;2023-07-31T09:34:40;21474.63;;;-141.84;62.23
15260;BME280;34462;51.368;12.364;2023-07-31T09:37:08;21460.41;;;-141.84;61.85
15260;BME280;34462;51.368;12.364;2023-07-31T09:39:46;21501.06;;;-141.84;61.99
15260;BME280;34462;51.368;12.364;2023-07-31T09:42:25;21468.53;;;-141.84;62.18
15260;BME280;34462;51.368;12.364;2023-07-31T09:44:54;21442.09;;;-141.84;63.02
15260;BME280;34462;51.368;12.364;2023-07-31T09:47:26;21462.44;;;-141.84;62.30
15260;BME280;34462;51.368;12.364;2023-07-31T09:49:55;21478.69;;;-141.84;61.67
15260;BME280;34462;51.368;12.364;2023-07-31T09:52:26;21470.56;;;-141.84;62.46
15260;BME280;34462;51.368;12.364;2023-07-31T09:54:55;21572.22;;;-141.84;60.78
15260;BME280;34462;51.368;12.364;2023-07-31T09:57:24;21614.94;;;-141.84;61.01
15260;BME280;34462;51.368;12.364;2023-07-31T09:59:53;21627.13;;;-141.84;61.41
15260;BME280;34462;51.368;12.364;2023-07-31T10:02:23;21663.72;;;-141.84;60.89
15260;BME280;34462;51.368;12.364;2023-07-31T10:04:58;21659.66;;;-141.84;63.00
15260;BME280;34462;51.368;12.364;2023-07-31T10:07:30;21602.72;;;-141.84;61.56
15260;BME280;34462;51.368;12.364;2023-07-31T10:10:00;21621.03;;;-141.84;62.30
15260;BME280;34462;51.368;12.364;2023-07-31T10:12:32;21692.19;;;-141.84;62.13
15260;BME280;34462;51.368;12.364;2023-07-31T10:15:02;21781.66;;;-141.84;60.69
15260;BME280;34462;51.368;12.364;2023-07-31T10:17:31;21836.56;;;-141.84;59.90
15260;BME280;34462;51.368;12.364;2023-07-31T10:20:02;21895.53;;;-141.84;58.73
15260;BME280;34462;51.368;12.364;2023-07-31T10:22:32;21911.78;;;-141.84;58.30
15260;BME280;34462;51.368;12.364;2023-07-31T10:25:01;21952.47;;;-141.84;58.35
15260;BME280;34462;51.368;12.364;2023-07-31T10:27:30;21989.06;;;-141.84;56.34
15260;BME280;34462;51.368;12.364;2023-07-31T10:29:59;21944.34;;;-141.84;57.21
15260;BME280;34462;51.368;12.364;2023-07-31T10:32:28;21895.53;;;-141.84;58.02
15260;BME280;34462;51.368;12.364;2023-07-31T10:34:58;21854.88;;;-141.84;57.88
15260;BME280;34462;51.368;12.364;2023-07-31T10:37:30;21848.75;;;-141.84;58.87
15260;BME280;34462;51.368;12.364;2023-07-31T10:40:00;21830.47;;;-141.84;58.28
15260;BME280;34462;51.368;12.364;2023-07-31T10:42:33;21842.66;;;-141.84;58.35
15260;BME280;34462;51.368;12.364;2023-07-31T10:45:04;21860.97;;;-141.84;58.80
15260;BME280;34462;51.368;12.364;2023-07-31T10:47:37;21795.88;;;-141.84;58.85
15260;BME280;34462;51.368;12.364;2023-07-31T10:50:12;21871.13;;;-141.84;58.47
15260;BME280;34462;51.368;12.364;2023-07-31T10:52:46;21893.50;;;-141.84;58.49
15260;BME280;34462;51.368;12.364;2023-07-31T10:55:22;21883.31;;;-141.84;58.96
15260;BME280;34462;51.368;12.364;2023-07-31T10:57:50;21948.41;;;-141.84;57.88
15260;BME280;34462;51.368;12.364;2023-07-31T11:00:25;21974.84;;;-141.84;56.87
15260;BME280;34462;51.368;12.364;2023-07-31T11:03:02;21997.19;;;-141.84;57.26
15260;BME280;34462;51.368;12.364;2023-07-31T11:05:48;21976.88;;;-141.84;56.94
15260;BME280;34462;51.368;12.364;2023-07-31T11:08:20;21966.69;;;-141.84;56.81
15260;BME280;34462;51.368;12.364;2023-07-31T11:10:51;22052.09;;;-141.84;56.10
15260;BME280;34462;51.368;12.364;2023-07-31T11:13:33;22109.03;;;-141.84;55.66
15260;BME280;34462;51.368;12.364;2023-07-31T11:16:02;22125.31;;;-141.84;54.81
15260;BME280;34462;51.368;12.364;2023-07-31T11:18:31;22155.81;;;-141.84;54.95
15260;BME280;34462;51.368;12.364;2023-07-31T11:21:00;22241.22;;;-141.84;54.41
15260;BME280;34462;51.368;12.364;2023-07-31T11:23:30;22342.91;;;-141.84;52.99
15260;BME280;34462;51.368;12.364;2023-07-31T11:26:00;22373.41;;;-141.84;51.73
15260;BME280;34462;51.368;12.364;2023-07-31T11:28:33;22342.91;;;-141.84;52.32
15260;BME280;34462;51.368;12.364;2023-07-31T11:31:02;22332.75;;;-141.84;52.92
15260;BME280;34462;51.368;12.364;2023-07-31T11:33:31;22322.56;;;-141.84;53.18
15260;BME280;34462;51.368;12.364;2023-07-31T11:35:59;22302.25;;;-141.84;54.21
15260;BME280;34462;51.368;12.364;2023-07-31T11:38:31;22424.25;;;-141.84;51.91
15260;BME280;34462;51.368;12.364;2023-07-31T11:41:02;22393.75;;;-141.84;51.21
15260;BME280;34462;51.368;12.364;2023-07-31T11:43:32;22340.88;;;-141.84;52.12
15260;BME280;34462;51.368;12.364;2023-07-31T11:46:01;22224.97;;;-141.84;52.38
15260;BME280;34462;51.368;12.364;2023-07-31T11:48:32;22229.03;;;-141.84;53.05
15260;BME280;34462;51.368;12.364;2023-07-31T11:51:03;22261.56;;;-141.84;53.19
15260;BME280;34462;51.368;12.364;2023-07-31T11:53:36;22212.75;;;-141.84;53.79
15260;BME280;34462;51.368;12.364;2023-07-31T11:56:07;22133.44;;;-141.84;52.97
15260;BME280;34462;51.368;12.364;2023-07-31T11:58:39;22137.50;;;-141.84;53.40
15260;BME280;34462;51.368;12.364;2023-07-31T12:01:08;22220.91;;;-141.84;53.68
15260;BME280;34462;51.368;12.364;2023-07-31T12:03:37;22237.16;;;-141.84;53.27
15260;BME280;34462;51.368;12.364;2023-07-31T12:06:06;22218.84;;;-141.84;53.97
15260;BME280;34462;51.368;12.364;2023-07-31T12:08:37;22184.28;;;-141.84;55.41
15260;BME280;34462;51.368;12.364;2023-07-31T12:11:07;22123.28;;;-141.84;55.07
15260;BME280;34462;51.368;12.364;2023-07-31T12:13:36;22080.56;;;-141.84;55.02
15260;BME280;34462;51.368;12.364;2023-07-31T12:16:05;22090.75;;;-141.84;55.81
15260;BME280;34462;51.368;12.364;2023-07-31T12:18:35;22147.69;;;-141.84;56.79
15260;BME280;34462;51.368;12.364;2023-07-31T12:21:06;22141.59;;;-141.84;55.84
15260;BME280;34462;51.368;12.364;2023-07-31T12:23:37;22241.22;;;-141.84;52.73
15260;BME280;34462;51.368;12.364;2023-07-31T12:26:07;22188.34;;;-141.84;54.62
15260;BME280;34462;51.368;12.364;2023-07-31T12:28:37;22237.16;;;-141.84;52.87
15260;BME280;34462;51.368;12.364;2023-07-31T12:31:08;22283.94;;;-141.84;52.55
15260;BME280;34462;51.368;12.364;2023-07-31T12:33:38;22395.78;;;-141.84;51.14
15260;BME280;34462;51.368;12.364;2023-07-31T12:36:08;22371.38;;;-141.84;51.45
15260;BME280;34462;51.368;12.364;2023-07-31T12:38:39;22365.28;;;-141.84;52.18
15260;BME280;34462;51.368;12.364;2023-07-31T12:41:07;22361.22;;;-141.84;52.12
15260;BME280;34462;51.368;12.364;2023-07-31T12:43:38;22259.53;;;-141.84;52.25